This is the latest recevied weather packets stored in our database for station/object K7CTM. If no packets are shown the sender has not sent any weather packets the latest 1 day(s).
| Time | Temp. | Humidity | Pressure | Rain* | Wind** | Luminosity | Snow |
|---|---|---|---|---|---|---|---|
| 1778089251 | 10.56° C | 35% | 1025.7 hPa | 0 mm | - | 582 W/m² | - |
| 1778088646 | 11.11° C | 35% | 1026 hPa | 0 mm | - | 893 W/m² | - |
| 1778087737 | 9.44° C | 36% | 1026.3 hPa | 0 mm | - | 759 W/m² | - |
| 1778086528 | 8.89° C | 38% | 1026.6 hPa | 0 mm | - | 723 W/m² | - |
| 1778085618 | 8.33° C | 39% | 1027 hPa | 0 mm | - | 688 W/m² | - |
| 1778085010 | 7.78° C | 38% | 1027.1 hPa | 0 mm | - | 672 W/m² | - |
| 1778084101 | 7.78° C | 44% | 1027.3 hPa | 0 mm | - | 634 W/m² | - |
| 1778083798 | 7.22° C | 45% | 1027.4 hPa | 0 mm | - | 621 W/m² | - |
| 1778081474 | 5.56° C | 53% | 1027.7 hPa | 0 mm | - | 510 W/m² | - |
| 1778080869 | 5° C | 55% | 1027.9 hPa | 0 mm | - | 480 W/m² | - |
| 1778080567 | 3.89° C | 57% | 1028 hPa | 0 mm | - | 463 W/m² | - |
| 1778079657 | 3.89° C | 60% | 1028.1 hPa | 0 mm | - | 419 W/m² | - |
| 1778078748 | 3.89° C | 54% | 1028.2 hPa | 0 mm | - | 368 W/m² | - |
| 1778078445 | 2.78° C | 57% | 1028.3 hPa | 0 mm | - | 349 W/m² | - |
| 1778078143 | 2.78° C | 57% | 1028.3 hPa | 0 mm | - | 335 W/m² | - |
| 1778076934 | 1.67° C | 67% | 1028.6 hPa | 0 mm | - | 270 W/m² | - |
| 1778075723 | 0° C | 73% | 1028.8 hPa | 0 mm | - | 205 W/m² | - |
| 1778074201 | -2.22° C | 81% | 1028.9 hPa | 0 mm | - | 129 W/m² | - |
| 1778073595 | -2.78° C | 82% | 1028.8 hPa | 0 mm | - | 103 W/m² | - |
| 1778073292 | -2.78° C | 83% | 1028.8 hPa | 0 mm | - | 90 W/m² | - |
| 1778072383 | -3.33° C | 84% | 1028.8 hPa | 0 mm | - | 60 W/m² | - |
| 1778071779 | -3.33° C | 86% | 1028.8 hPa | 0 mm | - | 44 W/m² | - |
| 1778071476 | -3.89° C | 86% | 1028.9 hPa | 0 mm | - | 35 W/m² | - |
| 1778070872 | -3.89° C | 87% | 1028.8 hPa | 0 mm | - | 26 W/m² | - |
| 1778066938 | -3.33° C | 86% | 1028.6 hPa | 0 mm | - | 0 W/m² | - |
* Rain latest hour (hover to see other rain measurements)
** Current wind speed in m/s (hover to see current wind gust speed)